Time;durP1;ratioP1;P1;durP2;ratioP2;P2;SDS_P1;SDS_P2;PMS_P1;PMS_P2;Temp;Humidity;BMP_temperature;BMP_pressure;BME280_temperature;BME280_humidity;BME280_pressure;Samples;Min_cycle;Max_cycle;Signal;HPM_P1;HPM_P2
2022/01/14 07:23:40;;;;;;;283.10;92.97;;;-3.90;99.90;;;;;;5053562;28;20413;-91
2022/01/14 07:26:11;;;;;;;272.98;91.80;;;-4.00;99.90;;;;;;5051900;28;20052;-92
2022/01/14 07:40:10;;;;;;;184.15;64.75;;;-3.10;99.90;;;;;;5085745;28;20373;-89
2022/01/14 07:42:37;;;;;;;200.80;69.43;;;-3.10;99.90;;;;;;5051884;28;20030;-90
2022/01/14 08:07:25;;;;;;;327.33;114.97;;;-2.90;99.90;;;;;;5113800;27;20437;-90
2022/01/14 08:09:51;;;;;;;359.20;132.00;;;-2.90;99.90;;;;;;5112201;28;20060;-91
2022/01/14 08:18:37;;;;;;;275.67;104.78;;;-2.30;99.90;;;;;;5092466;28;20046;-91
2022/01/14 11:14:17;;;;;;;166.05;68.47;;;4.80;99.90;;;;;;5092938;27;20435;-93
2022/01/14 11:25:30;;;;;;;194.05;86.25;;;6.30;96.30;;;;;;5095617;28;20117;-92
2022/01/14 11:27:59;;;;;;;179.23;78.03;;;6.50;96.20;;;;;;5078475;28;20024;-94
2022/01/14 11:30:38;;;;;;;171.95;72.47;;;6.60;95.60;;;;;;5093995;28;20055;-94
2022/01/14 11:33:07;;;;;;;166.52;68.95;;;6.80;95.70;;;;;;5093162;28;20017;-94
2022/01/14 11:35:37;;;;;;;155.90;66.10;;;7.00;95.30;;;;;;5092135;28;20029;-93
2022/01/14 11:38:24;;;;;;;128.65;55.88;;;7.20;95.20;;;;;;5091674;28;20017;-94
2022/01/14 11:40:50;;;;;;;120.10;50.33;;;7.50;95.10;;;;;;5091916;28;20063;-94
2022/01/14 11:43:49;;;;;;;117.88;49.22;;;7.80;94.50;;;;;;5092694;28;20032;-94
2022/01/14 11:46:48;;;;;;;130.27;55.00;;;8.00;93.90;;;;;;5108772;28;20433;-92
2022/01/14 11:49:39;;;;;;;138.15;58.85;;;8.30;93.70;;;;;;5092207;28;20048;-94
2022/01/14 11:52:22;;;;;;;139.60;58.85;;;8.40;93.40;;;;;;5092077;28;20031;-94
2022/01/14 11:55:35;;;;;;;;;;;;;;;;;;;;;
2022/01/14 12:01:59;;;;;;;118.57;53.92;;;8.90;91.80;;;;;;5089875;28;20028;-93
2022/01/14 12:15:04;;;;;;;153.35;68.70;;;9.60;90.60;;;;;;5050430;28;20025;-94
2022/01/14 12:17:51;;;;;;;167.32;72.93;;;9.90;90.00;;;;;;5031721;28;20443;-94
2022/01/14 12:20:58;;;;;;;170.88;75.70;;;10.00;88.70;;;;;;5063727;28;20040;-94
2022/01/14 12:23:30;;;;;;;180.55;80.28;;;10.20;89.70;;;;;;4982659;28;20053;-95
2022/01/14 12:26:46;;;;;;;190.25;83.88;;;10.30;87.00;;;;;;5013605;28;20040;-94
2022/01/14 12:29:44;;;;;;;180.52;78.97;;;10.30;87.30;;;;;;4974843;28;20624;-95
2022/01/14 12:35:35;;;;;;;171.15;75.30;;;10.60;86.60;;;;;;4978190;28;20082;-94
2022/01/14 12:41:32;;;;;;;157.30;65.80;;;10.70;85.70;;;;;;4978200;28;20193;-95
2022/01/14 12:47:41;;;;;;;151.65;65.60;;;10.70;86.90;;;;;;5017402;28;20085;-95
2022/01/14 12:50:31;;;;;;;149.00;65.18;;;10.80;86.20;;;;;;5000634;28;20484;-94
2022/01/14 12:53:14;;;;;;;143.38;62.13;;;11.10;85.00;;;;;;4997518;28;20033;-94
2022/01/14 13:02:30;;;;;;;;;;;;;;;;;;;;;
2022/01/14 13:05:09;;;;;;;;;;;11.40;85.60;;;;;;5056061;28;20025;-94
2022/01/14 13:07:38;;;;;;;88.43;40.85;;;11.50;84.40;;;;;;5039367;28;19904;-94
2022/01/14 13:10:24;;;;;;;79.45;38.40;;;11.70;84.20;;;;;;5056880;28;20024;-95
2022/01/14 13:12:54;;;;;;;69.72;31.60;;;11.90;84.60;;;;;;5056193;28;20044;-94
2022/01/14 13:18:48;;;;;;;64.28;31.27;;;12.00;84.80;;;;;;5056848;28;20048;-94
2022/01/14 13:21:23;;;;;;;62.65;31.70;;;12.30;84.30;;;;;;5063165;28;20556;-94
2022/01/14 13:23:49;;;;;;;67.20;33.28;;;12.40;83.30;;;;;;5078584;28;20025;-94
2022/01/14 13:26:51;;;;;;;69.90;35.38;;;12.40;82.20;;;;;;5076437;28;20352;-94
2022/01/14 13:29:19;;;;;;;85.75;40.35;;;12.60;81.90;;;;;;5075187;28;20021;-94
2022/01/14 13:32:06;;;;;;;96.47;44.92;;;12.80;82.80;;;;;;5075689;28;20496;-94
2022/01/14 13:34:51;;;;;;;86.05;40.45;;;12.90;83.00;;;;;;5075043;28;20028;-95
2022/01/14 13:37:25;;;;;;;90.75;41.67;;;13.00;81.20;;;;;;5075918;28;20115;-93
2022/01/14 13:40:22;;;;;;;87.60;42.75;;;13.10;81.30;;;;;;5076305;28;20035;-94
2022/01/14 13:43:33;;;;;;;101.18;51.38;;;13.20;82.90;;;;;;5075628;28;20029;-94
2022/01/14 13:46:06;;;;;;;112.68;52.58;;;13.30;80.50;;;;;;5074985;28;20111;-94
2022/01/14 13:48:45;;;;;;;109.07;49.17;;;13.40;81.40;;;;;;5075183;28;20476;-94
2022/01/14 13:58:50;;;;;;;;;;;;;;;;;;;;;
2022/01/14 14:01:35;;;;;;;;;;;;;;;;;;;;;
2022/01/14 14:04:15;;;;;;;209.38;81.78;;;13.10;81.20;;;;;;5076542;28;20520;-94
2022/01/14 14:07:08;;;;;;;207.98;84.95;;;13.10;80.60;;;;;;5075656;28;20039;-94
2022/01/14 14:09:52;;;;;;;231.40;99.00;;;13.00;81.90;;;;;;5077376;28;20060;-94
2022/01/14 14:12:49;;;;;;;224.68;97.35;;;13.00;82.00;;;;;;5075891;28;20464;-94
2022/01/14 14:15:44;;;;;;;254.13;99.80;;;13.10;82.00;;;;;;5075484;28;20510;-94
2022/01/14 14:18:52;;;;;;;255.18;100.38;;;13.20;80.90;;;;;;5074819;28;20032;-94
2022/01/14 14:21:29;;;;;;;265.00;99.20;;;12.90;82.20;;;;;;5074774;28;20080;-94
2022/01/14 14:27:26;;;;;;;254.18;94.50;;;12.50;82.60;;;;;;5076108;28;20104;-94
2022/01/14 14:33:48;;;;;;;309.17;117.40;;;12.50;82.10;;;;;;5075894;28;20040;-94
2022/01/14 14:36:26;;;;;;;336.63;130.02;;;12.40;82.70;;;;;;5068857;28;20029;-94
2022/01/14 14:38:57;;;;;;;397.98;149.35;;;12.30;82.80;;;;;;5075089;28;20024;-95
2022/01/14 14:41:42;;;;;;;419.00;155.82;;;12.10;83.00;;;;;;5074324;28;20047;-94
2022/01/14 14:44:23;;;;;;;419.17;148.52;;;12.00;84.00;;;;;;5073635;28;20025;-93
2022/01/14 14:50:37;;;;;;;359.33;151.70;;;11.70;83.80;;;;;;5073778;28;20549;-94
2022/01/14 14:53:10;;;;;;;372.48;151.57;;;11.40;85.60;;;;;;5073984;28;20040;-95
2022/01/14 14:55:36;;;;;;;327.17;128.40;;;11.30;84.20;;;;;;5017015;28;20040;-94
2022/01/14 14:58:20;;;;;;;309.52;121.05;;;11.10;84.40;;;;;;5017383;28;20037;-95
2022/01/14 15:00:56;;;;;;;285.95;115.25;;;10.60;85.40;;;;;;5017196;28;20115;-94
2022/01/14 15:03:31;;;;;;;325.13;132.27;;;10.20;87.60;;;;;;5017617;28;20022;-93
2022/01/14 15:06:20;;;;;;;339.92;136.93;;;9.90;87.40;;;;;;5017386;28;20025;-95
2022/01/14 15:09:20;;;;;;;363.77;140.13;;;9.60;87.80;;;;;;5017065;28;20446;-95
2022/01/14 15:11:53;;;;;;;389.90;149.60;;;9.30;88.70;;;;;;5031815;28;20038;-94
2022/01/14 15:14:22;;;;;;;398.20;160.05;;;9.00;90.00;;;;;;5016923;28;20407;-93
2022/01/14 15:19:20;;;;;;;404.13;163.07;;;8.60;90.40;;;;;;5033849;28;20113;-94
2022/01/14 15:22:02;;;;;;;424.63;176.55;;;8.30;90.70;;;;;;5015652;28;20048;-95
2022/01/14 15:24:31;;;;;;;423.40;174.13;;;8.10;91.00;;;;;;5017741;28;20049;-94
2022/01/14 15:27:05;;;;;;;411.15;165.57;;;7.90;91.30;;;;;;5017016;28;20052;-94
2022/01/14 15:29:40;;;;;;;397.63;156.73;;;7.70;91.90;;;;;;5021387;28;20411;-94
2022/01/14 15:32:33;;;;;;;399.65;156.73;;;7.60;91.90;;;;;;5074338;28;20024;-94
2022/01/14 15:35:15;;;;;;;401.55;157.73;;;7.50;92.30;;;;;;5074332;28;20024;-94
2022/01/14 15:37:41;;;;;;;427.42;176.07;;;7.40;92.70;;;;;;5076525;28;20460;-95
2022/01/14 15:40:41;;;;;;;447.70;190.38;;;7.30;92.50;;;;;;5075860;28;20349;-94
2022/01/14 15:43:29;;;;;;;435.85;180.18;;;7.10;92.90;;;;;;5073589;28;20402;-93
2022/01/14 15:45:55;;;;;;;418.50;170.60;;;6.90;93.00;;;;;;5077891;28;20115;-95
2022/01/14 15:48:25;;;;;;;424.25;173.23;;;6.80;93.10;;;;;;5059719;28;20457;-94
2022/01/14 15:50:57;;;;;;;390.88;156.40;;;6.70;93.40;;;;;;5074390;28;20028;-94
2022/01/14 15:53:40;;;;;;;385.73;153.02;;;6.70;93.50;;;;;;5075761;28;20059;-94
2022/01/14 15:56:34;;;;;;;396.27;154.15;;;6.60;93.50;;;;;;5075942;28;20054;-94
2022/01/14 15:59:13;;;;;;;477.05;199.15;;;6.50;94.00;;;;;;5074703;28;20040;-95
2022/01/14 16:01:39;;;;;;;550.65;237.25;;;6.40;94.40;;;;;;5075176;28;20033;-94
2022/01/14 16:04:21;;;;;;;;;;;;;;;;;;;;;
2022/01/14 16:07:06;;;;;;;470.95;194.43;;;6.20;94.70;;;;;;5076349;28;20021;-94
2022/01/14 16:09:32;;;;;;;453.00;183.02;;;6.00;94.90;;;;;;5080188;28;20021;-95
2022/01/14 16:12:01;;;;;;;414.45;159.32;;;5.80;95.40;;;;;;5078516;28;20390;-93
2022/01/14 16:14:32;;;;;;;421.77;166.50;;;5.70;95.90;;;;;;5078765;28;20047;-94
2022/01/14 16:17:06;;;;;;;442.08;170.07;;;5.80;95.70;;;;;;5079281;28;20021;-95
2022/01/14 16:19:32;;;;;;;428.80;170.02;;;5.80;95.90;;;;;;5079836;28;20056;-94
2022/01/14 16:22:03;;;;;;;444.25;191.48;;;5.70;95.30;;;;;;5079568;28;20414;-94
2022/01/14 16:24:52;;;;;;;433.65;182.63;;;5.60;96.00;;;;;;5080538;28;20107;-93
2022/01/14 16:27:21;;;;;;;396.33;156.95;;;5.50;95.90;;;;;;5078631;28;20043;-93
2022/01/14 16:30:00;;;;;;;391.35;150.10;;;5.50;95.90;;;;;;5083057;28;20025;-94
2022/01/14 16:32:59;;;;;;;392.67;149.50;;;5.30;96.20;;;;;;5080758;28;20044;-93
2022/01/14 16:35:41;;;;;;;405.10;157.35;;;5.20;96.70;;;;;;5074375;28;20037;-94
2022/01/14 16:38:14;;;;;;;412.35;169.48;;;5.10;96.70;;;;;;5079188;28;20040;-93
2022/01/14 16:40:52;;;;;;;439.67;194.02;;;5.20;96.80;;;;;;5079101;28;20486;-95
2022/01/14 16:43:35;;;;;;;423.77;174.30;;;5.20;96.70;;;;;;5081748;28;20069;-94
2022/01/14 16:46:10;;;;;;;525.50;234.77;;;5.10;96.80;;;;;;5078837;28;20033;-95
2022/01/14 16:48:42;;;;;;;487.15;216.43;;;5.00;97.50;;;;;;5080827;28;20037;-95
2022/01/14 16:51:09;;;;;;;467.85;204.75;;;4.90;97.70;;;;;;5077089;28;20035;-92
2022/01/14 16:53:51;;;;;;;475.67;204.27;;;4.80;97.40;;;;;;5077080;28;20024;-92
2022/01/14 16:56:17;;;;;;;452.55;185.82;;;4.70;97.80;;;;;;5077896;28;20169;-94
2022/01/14 16:58:51;;;;;;;420.52;165.23;;;4.60;98.30;;;;;;5077753;28;20089;-94
2022/01/14 17:01:26;;;;;;;407.08;156.98;;;4.70;98.00;;;;;;5076954;28;20028;-94
2022/01/14 17:03:58;;;;;;;370.92;142.80;;;4.80;97.50;;;;;;5077600;28;20017;-93
2022/01/14 17:09:44;;;;;;;430.33;173.43;;;4.60;97.70;;;;;;5080230;28;20025;-93
2022/01/14 17:12:38;;;;;;;450.25;186.63;;;4.50;98.30;;;;;;5076229;28;20037;-93
2022/01/14 17:15:32;;;;;;;484.88;203.40;;;4.40;98.00;;;;;;5077156;28;20037;-94
2022/01/14 17:18:16;;;;;;;477.83;198.38;;;4.20;98.80;;;;;;5076501;28;20069;-94
2022/01/14 17:20:49;;;;;;;465.13;187.88;;;4.10;99.40;;;;;;5060794;28;20378;-95
2022/01/14 17:23:39;;;;;;;442.48;180.57;;;4.10;99.20;;;;;;5076131;28;20095;-93
2022/01/14 17:26:09;;;;;;;456.17;185.73;;;4.00;99.20;;;;;;5076194;28;20059;-93
2022/01/14 17:28:51;;;;;;;;;;;;;;;;;;;;;
2022/01/14 17:31:32;;;;;;;372.63;141.48;;;4.00;99.50;;;;;;5077522;28;20031;-93
2022/01/14 17:34:25;;;;;;;430.98;170.98;;;4.10;99.10;;;;;;5076548;28;20034;-93
2022/01/14 17:37:04;;;;;;;387.05;148.45;;;4.00;99.80;;;;;;5076558;28;20036;-93
2022/01/14 17:39:33;;;;;;;378.40;142.70;;;4.00;99.30;;;;;;5076426;28;20029;-93
2022/01/14 17:42:21;;;;;;;375.85;146.85;;;4.00;99.60;;;;;;5076405;28;20479;-93
2022/01/14 17:44:47;;;;;;;416.40;168.20;;;3.80;99.70;;;;;;5058279;28;20033;-93
2022/01/14 17:47:34;;;;;;;387.83;147.25;;;3.70;99.90;;;;;;5058659;28;20120;-93
2022/01/14 17:53:32;;;;;;;379.15;145.00;;;3.70;99.90;;;;;;5036232;28;20436;-94
2022/01/14 17:56:04;;;;;;;402.88;159.82;;;3.70;99.90;;;;;;5053394;28;20029;-93
2022/01/14 17:58:42;;;;;;;397.27;152.27;;;3.80;99.90;;;;;;5059988;28;20024;-94
2022/01/14 18:01:23;;;;;;;381.63;146.25;;;3.70;99.90;;;;;;5059791;28;20044;-93
2022/01/14 18:03:49;;;;;;;399.75;157.45;;;3.70;99.90;;;;;;5059738;28;20636;-94
2022/01/14 18:06:16;;;;;;;434.83;177.00;;;3.60;99.60;;;;;;5057693;28;20067;-93
2022/01/14 18:09:01;;;;;;;430.23;181.65;;;3.60;99.80;;;;;;5057934;28;20017;-93
2022/01/14 18:11:36;;;;;;;422.13;174.88;;;3.50;99.90;;;;;;5058135;28;20024;-93
2022/01/14 18:14:24;;;;;;;413.85;165.68;;;3.40;99.90;;;;;;5059621;28;20127;-93
2022/01/14 18:17:13;;;;;;;364.75;145.82;;;3.30;99.90;;;;;;5074923;28;20061;-93
2022/01/14 18:19:42;;;;;;;371.80;151.70;;;3.30;99.90;;;;;;5075897;28;20356;-94
2022/01/14 18:31:36;;;;;;;337.48;131.95;;;3.20;99.90;;;;;;5073958;28;20138;-94
2022/01/14 18:36:56;;;;;;;349.17;131.13;;;3.30;99.90;;;;;;5049532;28;20032;-93
2022/01/14 18:39:51;;;;;;;348.02;133.95;;;3.30;99.90;;;;;;5098975;28;20038;-93
2022/01/14 18:42:22;;;;;;;329.25;128.13;;;3.20;99.90;;;;;;5082785;28;20112;-94
2022/01/14 18:44:51;;;;;;;299.55;120.38;;;3.20;99.90;;;;;;5098672;28;20469;-94
2022/01/14 18:47:18;;;;;;;358.73;138.18;;;3.20;99.90;;;;;;5098246;28;20020;-93
2022/01/14 18:49:50;;;;;;;319.95;122.07;;;3.10;99.90;;;;;;5098664;28;20024;-93
2022/01/14 18:52:21;;;;;;;286.90;116.55;;;3.00;99.90;;;;;;5098898;28;20019;-93
2022/01/14 18:55:10;;;;;;;300.35;118.55;;;2.90;99.90;;;;;;5098997;28;20084;-94
2022/01/14 19:03:49;;;;;;;336.27;126.20;;;3.10;99.90;;;;;;5054294;28;20086;-94
2022/01/14 19:06:41;;;;;;;367.02;137.57;;;3.10;99.90;;;;;;5037892;28;20032;-93
2022/01/14 19:09:11;;;;;;;379.65;132.82;;;3.10;99.90;;;;;;5036902;28;20064;-93
2022/01/14 19:11:39;;;;;;;377.20;137.60;;;3.00;99.90;;;;;;5037467;28;20029;-94
2022/01/14 19:17:41;;;;;;;332.45;124.55;;;3.00;99.90;;;;;;5053791;28;20023;-93
2022/01/14 19:20:26;;;;;;;356.50;129.73;;;3.00;99.90;;;;;;5036962;28;20079;-94
2022/01/14 19:23:04;;;;;;;333.27;125.18;;;3.00;99.90;;;;;;5036862;28;20041;-94
2022/01/14 19:25:51;;;;;;;305.45;112.63;;;3.00;99.90;;;;;;5052856;28;20394;-94
2022/01/14 19:28:25;;;;;;;339.10;132.70;;;3.00;99.90;;;;;;5059644;28;20055;-93
2022/01/14 19:30:54;;;;;;;317.98;125.05;;;3.00;99.90;;;;;;5098857;28;20016;-93
2022/01/14 19:33:28;;;;;;;328.85;125.53;;;3.00;99.90;;;;;;5094756;28;20032;-95
2022/01/14 19:39:20;;;;;;;324.92;121.40;;;3.00;99.90;;;;;;5074430;28;20023;-94
2022/01/14 19:42:06;;;;;;;350.48;132.10;;;2.90;99.90;;;;;;5055357;28;20033;-94
2022/01/14 19:44:56;;;;;;;372.20;145.43;;;2.90;99.90;;;;;;5061321;28;20063;-93
2022/01/14 19:47:44;;;;;;;346.50;130.50;;;2.80;99.90;;;;;;5077734;28;20013;-93
2022/01/14 19:50:13;;;;;;;345.92;133.00;;;2.70;99.90;;;;;;5060282;28;20021;-93
2022/01/14 19:52:39;;;;;;;378.45;139.82;;;2.70;99.90;;;;;;5061042;28;20190;-93
2022/01/14 19:55:31;;;;;;;363.85;134.48;;;2.60;99.90;;;;;;5061151;28;20056;-94
2022/01/14 19:57:59;;;;;;;379.33;135.02;;;2.60;99.90;;;;;;5060574;28;20029;-94
2022/01/14 20:00:27;;;;;;;353.52;133.05;;;2.70;99.90;;;;;;5079688;28;20044;-93
2022/01/14 20:02:53;;;;;;;362.58;136.40;;;2.70;99.90;;;;;;5099650;28;20032;-94
2022/01/14 20:05:28;;;;;;;349.50;133.02;;;2.70;99.90;;;;;;5100320;28;20110;-94
2022/01/14 20:07:58;;;;;;;385.42;144.35;;;2.70;99.90;;;;;;5100420;28;20035;-93
2022/01/14 20:10:25;;;;;;;385.77;144.32;;;2.70;99.90;;;;;;5101833;28;20027;-94
2022/01/14 20:12:51;;;;;;;341.50;130.07;;;2.60;99.90;;;;;;5101196;28;20051;-94
2022/01/14 20:15:17;;;;;;;376.42;143.90;;;2.60;99.90;;;;;;5101458;28;20462;-95
2022/01/14 20:17:46;;;;;;;409.48;157.30;;;2.60;99.90;;;;;;5101750;28;20036;-93
2022/01/14 20:20:39;;;;;;;451.02;175.63;;;2.60;99.90;;;;;;5101533;28;20024;-94
2022/01/14 20:23:10;;;;;;;404.48;151.68;;;2.40;99.90;;;;;;5096736;28;20130;-94
2022/01/14 20:25:39;;;;;;;387.48;147.60;;;2.30;99.90;;;;;;5100895;28;20027;-94
2022/01/14 20:28:05;;;;;;;431.55;160.73;;;2.20;99.90;;;;;;5102123;28;20027;-92
2022/01/14 20:30:39;;;;;;;389.60;144.55;;;2.10;99.90;;;;;;5084348;28;20036;-94
2022/01/14 20:36:30;;;;;;;469.23;180.07;;;2.20;99.90;;;;;;5077046;28;20032;-93
2022/01/14 20:44:09;;;;;;;518.42;194.35;;;2.00;99.90;;;;;;5064024;28;20060;-94
2022/01/14 20:46:41;;;;;;;462.10;169.98;;;2.00;99.90;;;;;;5044482;28;20005;-93
2022/01/14 20:49:11;;;;;;;485.75;183.32;;;1.90;99.90;;;;;;5041308;28;20017;-94
2022/01/14 20:58:30;;;;;;;548.42;225.48;;;1.80;99.90;;;;;;5007934;28;20082;-93
2022/01/14 21:00:59;;;;;;;447.80;171.38;;;1.90;99.90;;;;;;5042716;28;20025;-93
2022/01/14 21:03:25;;;;;;;512.65;206.38;;;1.60;99.90;;;;;;5040130;28;20047;-93
2022/01/14 21:05:57;;;;;;;489.45;198.25;;;1.70;99.90;;;;;;5040309;28;20025;-93
2022/01/14 21:08:29;;;;;;;571.88;231.38;;;1.60;99.90;;;;;;5040168;28;20035;-94
2022/01/14 21:10:58;;;;;;;567.67;232.43;;;1.60;99.90;;;;;;5040737;28;20048;-93
2022/01/14 21:13:42;;;;;;;518.90;208.35;;;1.60;99.90;;;;;;5059235;28;20040;-93
2022/01/14 21:16:11;;;;;;;547.13;221.60;;;1.60;99.90;;;;;;5058633;28;20044;-93
2022/01/14 21:18:42;;;;;;;525.85;211.95;;;1.60;99.90;;;;;;5045062;28;20036;-93
2022/01/14 21:21:15;;;;;;;571.72;238.30;;;1.50;99.90;;;;;;5042200;28;20086;-93
2022/01/14 21:23:44;;;;;;;560.95;230.00;;;1.50;99.90;;;;;;5040844;28;20071;-94
2022/01/14 21:26:13;;;;;;;509.67;205.40;;;1.50;99.90;;;;;;5045758;28;20029;-94
2022/01/14 21:28:39;;;;;;;521.63;211.48;;;1.40;99.90;;;;;;5041704;28;20029;-94
2022/01/14 21:31:08;;;;;;;496.63;203.65;;;1.50;99.90;;;;;;5042188;28;20017;-94
2022/01/14 21:33:40;;;;;;;506.13;208.25;;;1.50;99.90;;;;;;5039721;28;20029;-93
2022/01/14 21:36:15;;;;;;;532.58;223.10;;;1.40;99.90;;;;;;5039635;28;20025;-93
2022/01/14 21:42:03;;;;;;;565.75;238.00;;;1.30;99.90;;;;;;5055483;28;20085;-94
2022/01/14 21:44:48;;;;;;;553.20;232.68;;;1.20;99.90;;;;;;5040023;28;20112;-93
2022/01/14 21:47:14;;;;;;;559.80;228.25;;;1.30;99.90;;;;;;5040173;28;20021;-94
2022/01/14 21:49:43;;;;;;;615.50;255.18;;;1.30;99.90;;;;;;5040269;28;20025;-93
2022/01/14 21:52:25;;;;;;;551.40;226.40;;;1.30;99.90;;;;;;5040920;28;20033;-94
2022/01/14 21:54:53;;;;;;;555.63;226.18;;;1.20;99.90;;;;;;5041868;28;20111;-93
2022/01/14 21:57:19;;;;;;;507.50;200.70;;;1.20;99.90;;;;;;5042706;28;20117;-94
2022/01/14 21:59:45;;;;;;;488.55;199.02;;;1.00;99.90;;;;;;5042354;28;20060;-93
2022/01/14 22:02:11;;;;;;;456.27;174.27;;;1.10;99.90;;;;;;5043249;28;20475;-93
2022/01/14 22:05:02;;;;;;;419.85;155.68;;;1.20;99.90;;;;;;5041119;28;20075;-94
2022/01/14 22:07:33;;;;;;;443.90;169.05;;;1.30;99.90;;;;;;5057245;28;20017;-93
2022/01/14 22:10:29;;;;;;;444.15;161.13;;;1.40;99.90;;;;;;5039988;28;20060;-93
2022/01/14 22:15:52;;;;;;;453.67;172.10;;;1.40;99.90;;;;;;4957710;29;20261;-93
2022/01/14 22:28:34;;;;;;;533.22;206.85;;;1.40;99.90;;;;;;4901259;29;20131;-93
2022/01/14 22:31:27;;;;;;;514.90;200.85;;;1.30;99.90;;;;;;4900865;29;20426;-94
2022/01/14 22:33:54;;;;;;;494.02;193.43;;;1.20;99.90;;;;;;4987165;28;20067;-93
2022/01/14 22:36:22;;;;;;;485.30;190.07;;;1.10;99.90;;;;;;5039796;28;20029;-93
2022/01/14 22:39:01;;;;;;;446.05;161.82;;;1.00;99.90;;;;;;5040180;28;20028;-94
2022/01/14 22:41:45;;;;;;;429.10;151.35;;;0.90;99.90;;;;;;5040104;28;20131;-93
2022/01/14 22:44:22;;;;;;;434.20;152.13;;;0.90;99.90;;;;;;5038222;28;20123;-93
2022/01/14 22:47:00;;;;;;;429.10;153.68;;;0.80;99.90;;;;;;5039769;28;20021;-93
2022/01/14 22:49:26;;;;;;;400.67;144.95;;;0.80;99.90;;;;;;5039816;28;20044;-93
2022/01/14 22:51:54;;;;;;;423.33;150.35;;;0.70;99.90;;;;;;5040129;28;20029;-93
2022/01/14 22:57:33;;;;;;;383.73;133.43;;;0.70;99.90;;;;;;5057425;28;20036;-92
2022/01/14 23:00:25;;;;;;;341.58;124.93;;;0.80;99.90;;;;;;5038227;28;20064;-93
2022/01/14 23:06:43;;;;;;;364.10;127.85;;;1.00;99.90;;;;;;5055691;28;20070;-93
2022/01/14 23:09:23;;;;;;;353.20;120.22;;;0.90;99.90;;;;;;5038782;28;20368;-92
2022/01/14 23:18:32;;;;;;;370.65;129.65;;;0.80;99.90;;;;;;5055545;28;20032;-93
2022/01/14 23:21:13;;;;;;;374.40;129.75;;;0.70;99.90;;;;;;5033473;28;20038;-93
2022/01/14 23:24:11;;;;;;;362.27;126.25;;;0.70;99.90;;;;;;5033550;28;20025;-93
2022/01/14 23:27:00;;;;;;;358.70;124.60;;;0.60;99.90;;;;;;5032251;28;20029;-93
2022/01/14 23:29:37;;;;;;;338.30;119.43;;;0.60;99.90;;;;;;5032852;28;20033;-93
2022/01/14 23:32:07;;;;;;;352.65;123.07;;;0.50;99.90;;;;;;5032179;28;20033;-93
2022/01/14 23:34:38;;;;;;;344.40;122.80;;;0.50;99.90;;;;;;5033652;28;20041;-93
2022/01/14 23:37:07;;;;;;;348.10;120.80;;;0.40;99.90;;;;;;5033359;28;20037;-93
2022/01/14 23:39:39;;;;;;;342.60;121.13;;;0.40;99.90;;;;;;5033884;28;20112;-93
2022/01/14 23:42:14;;;;;;;385.60;133.93;;;0.40;99.90;;;;;;5033460;28;20041;-93
2022/01/14 23:47:59;;;;;;;359.40;128.80;;;0.10;99.90;;;;;;5014186;28;20022;-93
2022/01/14 23:50:32;;;;;;;366.50;130.88;;;0.00;99.90;;;;;;5013700;28;20111;-93
